createdAt,value
2019-03-27T00:02:06.467Z,4.40
2019-03-27T00:04:37.619Z,4.18
2019-03-27T00:07:08.791Z,4.20
2019-03-27T00:09:39.913Z,4.16
2019-03-27T00:12:10.983Z,4.17
2019-03-27T00:14:42.022Z,4.12
2019-03-27T00:17:13.058Z,4.06
2019-03-27T00:19:44.596Z,4.11
2019-03-27T00:22:15.656Z,4.16
2019-03-27T00:24:46.672Z,4.01
2019-03-27T00:27:17.739Z,3.88
2019-03-27T00:29:49.851Z,4.01
2019-03-27T00:32:21.142Z,4.00
2019-03-27T00:34:52.246Z,4.00
2019-03-27T00:37:23.346Z,3.94
2019-03-27T00:39:55.516Z,3.97
2019-03-27T00:42:26.547Z,3.94
2019-03-27T00:44:58.266Z,3.93
2019-03-27T00:47:29.238Z,3.88
2019-03-27T00:50:00.305Z,3.80
2019-03-27T00:52:31.436Z,3.82
2019-03-27T00:55:02.472Z,3.75
2019-03-27T00:57:33.435Z,3.68
2019-03-27T01:00:25.932Z,3.77
2019-03-27T01:02:56.998Z,3.73
2019-03-27T01:05:29.241Z,3.83
2019-03-27T01:08:00.251Z,3.77
2019-03-27T01:10:31.364Z,3.66
2019-03-27T01:13:02.441Z,3.71
2019-03-27T01:15:39.600Z,3.64
2019-03-27T01:18:06.649Z,3.69
2019-03-27T01:20:37.683Z,3.62
2019-03-27T01:23:08.858Z,3.56
2019-03-27T01:25:39.814Z,3.50
2019-03-27T01:28:10.943Z,3.55
2019-03-27T01:30:41.941Z,3.59
2019-03-27T01:33:13.034Z,3.58
2019-03-27T01:35:44.139Z,3.57
2019-03-27T01:38:15.217Z,3.62
2019-03-27T01:40:46.311Z,3.61
2019-03-27T01:43:17.360Z,3.64
2019-03-27T01:45:53.347Z,3.58
2019-03-27T01:48:21.175Z,3.54
2019-03-27T01:50:52.245Z,3.57
2019-03-27T01:53:23.258Z,3.63
2019-03-27T01:55:54.313Z,3.71
2019-03-27T01:58:25.354Z,3.59
2019-03-27T02:00:56.391Z,3.73
2019-03-27T02:03:27.446Z,3.79
2019-03-27T02:05:58.581Z,3.73
2019-03-27T02:08:29.612Z,3.64
2019-03-27T02:11:00.659Z,3.74
2019-03-27T02:13:32.836Z,3.85
2019-03-27T02:16:07.058Z,3.63
2019-03-27T02:18:36.565Z,3.64
2019-03-27T02:21:07.594Z,3.61
2019-03-27T02:23:38.634Z,3.55
2019-03-27T02:26:09.673Z,3.53
2019-03-27T02:28:40.709Z,3.53
2019-03-27T02:31:11.761Z,3.62
2019-03-27T02:33:42.909Z,3.67
2019-03-27T02:36:13.871Z,3.65
2019-03-27T02:38:44.877Z,3.66
2019-03-27T02:41:15.956Z,3.55
2019-03-27T02:43:47.076Z,3.61
2019-03-27T02:46:25.154Z,3.59
2019-03-27T02:48:50.827Z,3.60
2019-03-27T02:51:21.861Z,3.55
2019-03-27T02:53:54.000Z,3.42
2019-03-27T02:56:25.082Z,3.49
2019-03-27T02:58:56.194Z,3.48
2019-03-27T03:01:27.273Z,3.48
2019-03-27T03:03:58.283Z,3.60
2019-03-27T03:06:29.272Z,3.51
2019-03-27T03:09:00.372Z,3.51
2019-03-27T03:11:31.733Z,3.45
2019-03-27T03:14:03.109Z,3.48
2019-03-27T03:16:41.813Z,3.47
2019-03-27T03:19:06.883Z,3.51
2019-03-27T03:21:38.077Z,3.35
2019-03-27T03:24:09.159Z,3.31
2019-03-27T03:26:40.205Z,3.21
2019-03-27T03:29:11.248Z,3.17
2019-03-27T03:31:42.212Z,3.15
2019-03-27T03:34:13.239Z,3.16
2019-03-27T03:36:44.375Z,3.18
2019-03-27T03:39:15.343Z,3.15
2019-03-27T03:41:46.494Z,3.29
2019-03-27T03:44:17.566Z,3.21
2019-03-27T03:46:59.577Z,3.46
2019-03-27T03:49:21.418Z,3.43
2019-03-27T03:51:52.533Z,3.41
2019-03-27T03:54:23.482Z,3.63
2019-03-27T03:56:55.617Z,3.85
2019-03-27T03:59:28.412Z,3.76
2019-03-27T04:02:03.039Z,3.58
2019-03-27T04:04:33.495Z,3.48
2019-03-27T04:07:04.373Z,3.37
2019-03-27T04:09:35.396Z,3.41
2019-03-27T04:12:07.577Z,3.53
2019-03-27T04:14:38.705Z,3.47
2019-03-27T04:17:17.108Z,3.56
2019-03-27T04:19:42.414Z,3.58
2019-03-27T04:22:13.382Z,3.64
2019-03-27T04:24:44.412Z,3.71
2019-03-27T04:27:15.449Z,3.73
2019-03-27T04:29:46.988Z,3.69
2019-03-27T04:32:18.052Z,3.64
2019-03-27T04:34:49.083Z,3.80
2019-03-27T04:37:20.097Z,4.16
2019-03-27T04:39:51.131Z,4.19
2019-03-27T04:42:22.251Z,4.35
2019-03-27T04:44:53.357Z,4.40
2019-03-27T04:47:32.016Z,4.47
2019-03-27T04:49:57.177Z,4.28
2019-03-27T04:52:28.216Z,4.29
2019-03-27T04:54:59.258Z,4.33
2019-03-27T04:57:30.399Z,4.41
2019-03-27T05:00:01.449Z,4.29
2019-03-27T05:02:32.601Z,4.30
2019-03-27T05:05:06.654Z,4.27
2019-03-27T05:07:37.758Z,4.47
2019-03-27T05:10:08.899Z,4.55
2019-03-27T05:12:40.034Z,4.95
2019-03-27T05:15:12.097Z,4.86
2019-03-27T05:17:46.277Z,4.56
2019-03-27T05:20:16.019Z,4.55
2019-03-27T05:22:47.068Z,4.76
2019-03-27T05:25:18.169Z,4.67
2019-03-27T05:27:49.251Z,4.89
2019-03-27T05:30:30.176Z,5.07
2019-03-27T05:33:01.274Z,5.43
2019-03-27T05:35:32.814Z,5.26
2019-03-27T05:38:03.896Z,5.43
2019-03-27T05:40:35.082Z,5.39
2019-03-27T05:43:06.189Z,5.10
2019-03-27T05:45:37.774Z,4.98
2019-03-27T05:48:09.102Z,5.32
2019-03-27T05:50:40.199Z,5.15
2019-03-27T05:53:11.200Z,4.96
2019-03-27T05:55:42.176Z,5.51
2019-03-27T05:58:13.374Z,5.66
2019-03-27T06:00:44.529Z,5.61
2019-03-27T06:03:16.670Z,5.38
2019-03-27T06:05:47.673Z,5.53
2019-03-27T06:08:18.680Z,5.57
2019-03-27T06:10:50.779Z,5.74
2019-03-27T06:13:21.782Z,6.09
2019-03-27T06:15:52.857Z,6.27
2019-03-27T06:18:23.940Z,6.76
2019-03-27T06:20:55.051Z,6.76
2019-03-27T06:23:26.128Z,6.21
2019-03-27T06:25:57.241Z,6.21
2019-03-27T06:28:28.328Z,6.33
2019-03-27T06:30:59.374Z,6.61
2019-03-27T06:33:30.997Z,7.01
2019-03-27T06:36:02.143Z,7.01
2019-03-27T06:38:33.293Z,7.19
2019-03-27T06:41:04.429Z,6.98
2019-03-27T06:43:35.524Z,6.98
2019-03-27T06:46:06.635Z,7.06
2019-03-27T06:48:37.777Z,7.32
2019-03-27T06:51:08.882Z,7.06
2019-03-27T06:53:39.895Z,6.90
2019-03-27T06:56:11.030Z,7.18
2019-03-27T06:58:53.881Z,7.50
2019-03-27T07:01:15.076Z,7.51
2019-03-27T07:03:46.190Z,7.31
2019-03-27T07:06:17.348Z,7.39
2019-03-27T07:08:48.364Z,7.67
2019-03-27T07:11:19.354Z,7.48
2019-03-27T07:13:50.508Z,7.29
2019-03-27T07:16:21.507Z,7.49
2019-03-27T07:18:52.627Z,7.63
2019-03-27T07:21:23.785Z,7.37
2019-03-27T07:23:55.286Z,7.28
2019-03-27T07:26:26.498Z,7.62
2019-03-27T07:29:00.131Z,7.26
2019-03-27T07:31:31.075Z,7.07
2019-03-27T07:34:02.059Z,7.16
2019-03-27T07:36:33.066Z,7.31
2019-03-27T07:39:10.790Z,7.49
2019-03-27T07:41:38.320Z,7.17
2019-03-27T07:44:09.360Z,7.61
2019-03-27T07:46:41.986Z,7.89
2019-03-27T07:49:12.888Z,7.90
2019-03-27T07:51:43.737Z,7.90
2019-03-27T07:54:14.644Z,7.47
2019-03-27T07:56:45.550Z,7.60
2019-03-27T07:59:16.517Z,7.73
2019-03-27T08:01:47.642Z,7.51
2019-03-27T08:04:18.752Z,7.41
2019-03-27T08:06:49.645Z,7.69
2019-03-27T08:09:23.006Z,8.03
2019-03-27T08:11:53.274Z,8.15
2019-03-27T08:14:24.263Z,8.20
2019-03-27T08:16:55.251Z,8.64
2019-03-27T08:19:26.180Z,8.60
2019-03-27T08:22:04.969Z,8.14
2019-03-27T08:24:32.521Z,7.74
2019-03-27T08:27:03.790Z,8.36
2019-03-27T08:29:38.433Z,8.29
2019-03-27T08:32:12.605Z,7.95
2019-03-27T08:34:43.544Z,7.97
2019-03-27T08:37:15.587Z,7.95
2019-03-27T08:39:46.643Z,7.74
2019-03-27T08:42:17.731Z,7.58
2019-03-27T08:44:48.862Z,7.91
2019-03-27T08:47:19.866Z,8.12
2019-03-27T08:49:51.168Z,7.99
2019-03-27T08:52:22.219Z,8.38
2019-03-27T08:54:53.457Z,8.25
2019-03-27T08:57:24.512Z,8.49
2019-03-27T08:59:55.568Z,8.13
2019-03-27T09:02:26.412Z,8.57
2019-03-27T09:04:57.477Z,8.55
2019-03-27T09:07:28.499Z,8.72
2019-03-27T09:09:59.561Z,9.02
2019-03-27T09:12:30.559Z,8.72
2019-03-27T09:15:01.633Z,8.21
2019-03-27T09:17:32.627Z,8.43
2019-03-27T09:20:04.786Z,8.25
2019-03-27T09:22:35.799Z,8.66
2019-03-27T09:25:07.011Z,8.72
2019-03-27T09:27:37.948Z,8.87
2019-03-27T09:30:11.712Z,8.64
2019-03-27T09:32:42.679Z,8.87
2019-03-27T09:35:14.645Z,8.71
2019-03-27T09:37:45.645Z,8.87
2019-03-27T09:40:16.713Z,9.42
2019-03-27T09:42:47.768Z,8.98
2019-03-27T09:45:18.769Z,8.57
2019-03-27T09:47:49.909Z,8.12
2019-03-27T09:50:21.051Z,8.51
2019-03-27T09:52:51.903Z,8.92
2019-03-27T09:55:22.935Z,8.97
2019-03-27T09:57:54.029Z,9.64
2019-03-27T10:00:39.723Z,9.14
2019-03-27T10:03:10.710Z,9.01
2019-03-27T10:05:41.689Z,8.89
2019-03-27T10:08:12.622Z,9.28
2019-03-27T10:10:43.827Z,9.51
2019-03-27T10:13:15.088Z,9.28
2019-03-27T10:15:46.307Z,9.18
2019-03-27T10:18:17.330Z,9.03
2019-03-27T10:20:48.267Z,8.89
2019-03-27T10:23:19.195Z,9.05
2019-03-27T10:25:50.366Z,9.03
2019-03-27T10:28:21.722Z,9.13
2019-03-27T10:30:52.739Z,9.00
2019-03-27T10:33:23.816Z,9.16
2019-03-27T10:35:55.009Z,9.33
2019-03-27T10:38:26.132Z,9.53
2019-03-27T10:40:57.078Z,9.13
2019-03-27T10:43:28.018Z,8.95
2019-03-27T10:45:58.944Z,8.99
2019-03-27T10:48:29.969Z,9.25
2019-03-27T10:51:00.834Z,9.43
2019-03-27T10:53:31.885Z,9.41
2019-03-27T10:56:03.190Z,9.02
2019-03-27T10:58:34.046Z,8.65
2019-03-27T11:01:07.269Z,8.97
2019-03-27T11:03:37.885Z,8.95
2019-03-27T11:06:08.827Z,8.99
2019-03-27T11:08:39.876Z,9.17
2019-03-27T11:11:10.811Z,8.90
2019-03-27T11:13:41.680Z,8.77
2019-03-27T11:16:12.604Z,9.08
2019-03-27T11:18:43.628Z,9.15
2019-03-27T11:21:15.570Z,9.11
2019-03-27T11:23:46.610Z,9.22
2019-03-27T11:26:17.598Z,9.14
2019-03-27T11:28:48.710Z,9.25
2019-03-27T11:31:19.890Z,9.19
2019-03-27T11:33:51.023Z,9.10
2019-03-27T11:36:22.103Z,9.05
2019-03-27T11:38:53.158Z,8.78
2019-03-27T11:41:24.318Z,8.35
2019-03-27T11:43:55.386Z,8.75
2019-03-27T11:46:26.542Z,8.41
2019-03-27T11:48:57.456Z,8.58
2019-03-27T11:51:29.416Z,8.64
2019-03-27T11:54:00.432Z,8.89
2019-03-27T11:56:31.408Z,8.97
2019-03-27T11:59:02.354Z,8.95
2019-03-27T12:01:40.629Z,8.68
2019-03-27T12:04:06.219Z,8.84
2019-03-27T12:06:37.227Z,9.10
2019-03-27T12:09:08.205Z,9.14
2019-03-27T12:11:39.261Z,8.82
2019-03-27T12:14:12.296Z,8.57
2019-03-27T12:16:42.968Z,8.28
2019-03-27T12:19:13.884Z,8.28
2019-03-27T12:21:44.930Z,8.02
2019-03-27T12:24:16.021Z,7.77
2019-03-27T12:26:47.137Z,7.21
2019-03-27T12:29:18.459Z,7.28
2019-03-27T12:31:49.525Z,7.18
2019-03-27T12:34:20.467Z,7.14
2019-03-27T12:36:51.596Z,7.17
2019-03-27T12:39:22.623Z,6.80
2019-03-27T12:41:53.631Z,6.76
2019-03-27T12:44:24.655Z,6.67
2019-03-27T12:46:55.779Z,6.34
2019-03-27T12:49:26.720Z,6.34
2019-03-27T12:51:57.869Z,6.40
2019-03-27T12:54:28.941Z,6.18
2019-03-27T12:57:00.141Z,5.88
2019-03-27T12:59:31.164Z,5.93
2019-03-27T13:02:02.132Z,5.85
2019-03-27T13:04:33.097Z,6.00
2019-03-27T13:07:04.185Z,5.79
2019-03-27T13:09:35.149Z,5.82
2019-03-27T13:12:06.243Z,5.81
2019-03-27T13:14:37.349Z,5.48
2019-03-27T13:17:08.439Z,5.48
2019-03-27T13:19:39.398Z,5.54
2019-03-27T13:22:10.484Z,5.42
2019-03-27T13:24:41.518Z,4.97
2019-03-27T13:27:12.593Z,4.97
2019-03-27T13:29:43.727Z,4.96
2019-03-27T13:32:14.775Z,4.82
2019-03-27T13:34:45.875Z,4.68
2019-03-27T13:37:16.954Z,4.71
2019-03-27T13:39:48.009Z,4.54
2019-03-27T13:42:18.993Z,4.54
2019-03-27T13:44:50.217Z,4.51
2019-03-27T13:47:21.285Z,4.38
2019-03-27T13:49:52.241Z,4.37
2019-03-27T13:52:23.430Z,4.40
2019-03-27T13:54:54.555Z,4.30
2019-03-27T13:57:25.671Z,4.31
2019-03-27T13:59:56.817Z,4.19
2019-03-27T14:02:27.890Z,4.05
2019-03-27T14:04:58.941Z,4.13
2019-03-27T14:07:31.126Z,3.98
2019-03-27T14:10:02.138Z,4.01
2019-03-27T14:12:33.286Z,3.91
2019-03-27T14:15:07.726Z,3.76
2019-03-27T14:17:38.880Z,3.64
2019-03-27T14:20:11.586Z,3.53
2019-03-27T14:22:42.666Z,3.62
2019-03-27T14:25:13.719Z,3.56
2019-03-27T14:27:45.611Z,3.59
2019-03-27T14:30:22.792Z,3.49
2019-03-27T14:32:53.814Z,3.45
2019-03-27T14:35:24.864Z,3.38
2019-03-27T14:37:55.892Z,3.28
2019-03-27T14:40:27.030Z,3.27
2019-03-27T14:42:58.089Z,3.27
2019-03-27T14:45:29.070Z,3.19
2019-03-27T14:48:01.552Z,3.23
2019-03-27T14:50:32.653Z,3.11
2019-03-27T14:53:03.790Z,2.90
2019-03-27T14:55:34.787Z,2.88
2019-03-27T14:58:05.986Z,2.68
2019-03-27T15:00:37.008Z,2.76
2019-03-27T15:03:08.050Z,2.84
2019-03-27T15:05:39.496Z,2.57
2019-03-27T15:08:10.677Z,2.44
2019-03-27T15:10:41.770Z,2.19
2019-03-27T15:13:15.285Z,2.18
2019-03-27T15:15:45.671Z,2.19
2019-03-27T15:18:16.952Z,1.90
2019-03-27T15:20:49.054Z,1.90
2019-03-27T15:23:20.191Z,1.83
2019-03-27T15:25:51.308Z,1.89
2019-03-27T15:28:22.722Z,1.79
2019-03-27T15:30:53.809Z,1.34
2019-03-27T15:33:24.835Z,1.32
2019-03-27T15:35:55.897Z,1.15
2019-03-27T15:38:26.871Z,1.17
2019-03-27T15:40:57.978Z,1.06
2019-03-27T15:43:29.119Z,1.01
2019-03-27T15:46:00.257Z,1.00
2019-03-27T15:48:31.305Z,1.04
2019-03-27T15:51:03.337Z,0.79
2019-03-27T15:53:34.311Z,0.89
2019-03-27T15:56:05.351Z,0.82
2019-03-27T15:58:36.393Z,0.84
2019-03-27T16:01:07.610Z,0.98
2019-03-27T16:03:38.747Z,0.93
2019-03-27T16:06:09.999Z,0.86
2019-03-27T16:08:41.299Z,0.90
2019-03-27T16:11:12.254Z,0.67
2019-03-27T16:13:43.440Z,0.81
2019-03-27T16:16:14.501Z,0.79
2019-03-27T16:18:45.625Z,0.89
2019-03-27T16:21:16.742Z,0.81
2019-03-27T16:23:47.697Z,0.81
2019-03-27T16:26:18.763Z,0.92
2019-03-27T16:28:49.802Z,0.78
2019-03-27T16:31:22.850Z,0.81
2019-03-27T16:33:54.024Z,0.83
2019-03-27T16:36:25.084Z,0.78
2019-03-27T16:38:56.079Z,0.84
2019-03-27T16:41:27.057Z,0.80
2019-03-27T16:43:58.045Z,0.83
2019-03-27T16:46:29.043Z,0.76
2019-03-27T16:49:00.702Z,0.69
2019-03-27T16:51:31.713Z,0.81
2019-03-27T16:54:02.914Z,0.73
2019-03-27T16:56:33.946Z,0.75
2019-03-27T16:59:04.969Z,0.79
2019-03-27T17:01:36.006Z,0.79
2019-03-27T17:04:07.055Z,0.60
2019-03-27T17:06:38.301Z,0.62
2019-03-27T17:09:09.446Z,0.62
2019-03-27T17:11:40.580Z,0.70
2019-03-27T17:14:11.662Z,0.68
2019-03-27T17:16:42.667Z,0.63
2019-03-27T17:19:13.647Z,0.76
2019-03-27T17:21:44.724Z,0.76
2019-03-27T17:24:15.650Z,0.69
2019-03-27T17:26:46.732Z,0.66
2019-03-27T17:29:17.678Z,0.70
2019-03-27T17:31:48.827Z,0.67
2019-03-27T17:34:19.853Z,0.77
2019-03-27T17:36:50.791Z,0.82
2019-03-27T17:39:21.839Z,0.76
2019-03-27T17:41:52.948Z,0.64
2019-03-27T17:44:23.897Z,0.69
2019-03-27T17:46:54.962Z,0.78
2019-03-27T17:49:25.996Z,0.78
2019-03-27T17:51:57.094Z,0.78
2019-03-27T17:54:28.173Z,0.70
2019-03-27T17:56:59.277Z,0.76
2019-03-27T17:59:30.247Z,0.74
2019-03-27T18:02:01.326Z,0.74
2019-03-27T18:04:32.353Z,0.69
2019-03-27T18:07:03.448Z,0.71
2019-03-27T18:09:34.556Z,0.72
2019-03-27T18:12:05.621Z,0.73
2019-03-27T18:14:36.828Z,0.72
2019-03-27T18:17:07.929Z,0.79
2019-03-27T18:19:39.011Z,0.79
2019-03-27T18:22:11.066Z,0.82
2019-03-27T18:24:42.228Z,0.76
2019-03-27T18:27:13.274Z,0.70
2019-03-27T18:29:44.302Z,0.76
2019-03-27T18:32:15.347Z,0.65
2019-03-27T18:34:46.407Z,0.64
2019-03-27T18:37:17.358Z,0.61
2019-03-27T18:39:48.485Z,0.65
2019-03-27T18:42:19.510Z,0.80
2019-03-27T18:44:50.570Z,0.77
2019-03-27T18:47:21.602Z,0.70
2019-03-27T18:49:52.554Z,0.68
2019-03-27T18:52:23.588Z,0.73
2019-03-27T18:54:54.946Z,0.73
2019-03-27T18:57:26.169Z,0.74
2019-03-27T18:59:57.258Z,0.75
2019-03-27T19:02:28.420Z,0.77
2019-03-27T19:04:59.731Z,0.85
2019-03-27T19:07:31.145Z,0.91
2019-03-27T19:10:02.316Z,0.75
2019-03-27T19:12:33.747Z,0.88
2019-03-27T19:15:09.327Z,0.89
2019-03-27T19:17:40.579Z,0.89
2019-03-27T19:20:11.694Z,0.81
2019-03-27T19:22:42.871Z,0.96
2019-03-27T19:25:13.900Z,1.02
2019-03-27T19:27:44.991Z,0.95
2019-03-27T19:30:16.158Z,0.87
2019-03-27T19:32:47.219Z,0.82
2019-03-27T19:35:18.187Z,0.88
2019-03-27T19:37:49.639Z,0.96
2019-03-27T19:40:20.689Z,1.03
2019-03-27T19:42:51.893Z,0.99
2019-03-27T19:45:22.938Z,1.06
2019-03-27T19:47:53.995Z,1.07
2019-03-27T19:50:25.116Z,1.13
2019-03-27T19:52:56.116Z,1.02
2019-03-27T19:55:27.370Z,1.10
2019-03-27T19:57:58.525Z,1.11
2019-03-27T20:00:29.823Z,1.32
2019-03-27T20:03:00.852Z,1.16
2019-03-27T20:05:31.983Z,1.32
2019-03-27T20:08:03.139Z,1.26
2019-03-27T20:10:34.162Z,1.25
2019-03-27T20:13:05.226Z,1.20
2019-03-27T20:15:36.453Z,1.21
2019-03-27T20:18:07.576Z,1.29
2019-03-27T20:20:38.740Z,1.24
2019-03-27T20:23:15.053Z,1.13
2019-03-27T20:25:42.740Z,1.42
2019-03-27T20:28:13.782Z,1.35
2019-03-27T20:30:44.926Z,1.22
2019-03-27T20:33:15.963Z,1.17
2019-03-27T20:35:47.261Z,1.41
2019-03-27T20:38:18.373Z,1.43
2019-03-27T20:40:49.513Z,1.31
2019-03-27T20:43:20.705Z,1.36
2019-03-27T20:45:53.114Z,1.29
2019-03-27T20:48:25.439Z,1.35
2019-03-27T20:50:56.611Z,1.26
2019-03-27T20:53:27.710Z,1.09
2019-03-27T20:55:58.859Z,1.20
2019-03-27T20:58:30.943Z,1.24
2019-03-27T21:01:02.064Z,1.12
2019-03-27T21:03:33.317Z,1.32
2019-03-27T21:06:04.350Z,1.32
2019-03-27T21:08:35.423Z,1.29
2019-03-27T21:11:06.676Z,1.37
2019-03-27T21:13:40.952Z,1.44
2019-03-27T21:16:10.578Z,1.44
2019-03-27T21:18:41.824Z,1.56
2019-03-27T21:21:12.949Z,1.62
2019-03-27T21:23:44.003Z,1.60
2019-03-27T21:26:14.967Z,1.69
2019-03-27T21:28:45.988Z,1.59
2019-03-27T21:31:17.186Z,1.59
2019-03-27T21:33:48.323Z,1.57
2019-03-27T21:36:19.467Z,1.59
2019-03-27T21:38:50.445Z,1.59
2019-03-27T21:41:21.515Z,1.58
2019-03-27T21:43:52.569Z,1.55
2019-03-27T21:46:23.742Z,1.40
2019-03-27T21:48:54.835Z,1.30
2019-03-27T21:51:25.877Z,1.32
2019-03-27T21:53:56.833Z,1.32
2019-03-27T21:56:27.859Z,1.25
2019-03-27T21:59:02.279Z,1.22
2019-03-27T22:01:31.593Z,1.20
2019-03-27T22:04:02.896Z,1.24
2019-03-27T22:06:34.070Z,1.28
2019-03-27T22:09:06.581Z,1.32
2019-03-27T22:11:37.861Z,1.30
2019-03-27T22:14:08.831Z,1.23
2019-03-27T22:16:39.944Z,1.18
2019-03-27T22:19:10.927Z,1.14
2019-03-27T22:21:41.946Z,1.11
2019-03-27T22:24:13.015Z,1.15
2019-03-27T22:26:44.063Z,1.22
2019-03-27T22:29:15.094Z,1.07
2019-03-27T22:31:46.216Z,1.15
2019-03-27T22:34:17.268Z,1.04
2019-03-27T22:36:48.284Z,1.02
2019-03-27T22:39:19.351Z,1.00
2019-03-27T22:41:50.338Z,0.91
2019-03-27T22:44:21.499Z,0.98
2019-03-27T22:46:52.457Z,0.91
2019-03-27T22:49:23.620Z,0.77
2019-03-27T22:51:54.674Z,0.76
2019-03-27T22:54:25.819Z,0.73
2019-03-27T22:56:56.958Z,0.74
2019-03-27T22:59:28.073Z,0.68
2019-03-27T23:01:59.167Z,0.78
2019-03-27T23:04:30.327Z,0.78
2019-03-27T23:07:01.426Z,0.64
2019-03-27T23:09:32.640Z,0.68
2019-03-27T23:12:03.862Z,0.66
2019-03-27T23:14:34.963Z,0.65
2019-03-27T23:17:06.001Z,0.62
2019-03-27T23:19:37.045Z,0.52
2019-03-27T23:22:08.073Z,0.62
2019-03-27T23:24:39.111Z,0.66
2019-03-27T23:27:10.133Z,0.66
2019-03-27T23:29:41.159Z,0.62
2019-03-27T23:32:12.185Z,0.51
2019-03-27T23:34:43.391Z,0.43
2019-03-27T23:37:14.533Z,0.48
2019-03-27T23:39:46.027Z,0.55
2019-03-27T23:42:17.065Z,0.43
2019-03-27T23:44:48.210Z,0.43
2019-03-27T23:47:19.206Z,0.38
2019-03-27T23:49:50.293Z,0.37
2019-03-27T23:52:21.397Z,0.41
2019-03-27T23:54:52.392Z,0.42
2019-03-27T23:57:23.328Z,0.42
2019-03-27T23:59:54.394Z,0.57
